Time;durP1;ratioP1;P1;durP2;ratioP2;P2;SDS_P1;SDS_P2;PMS_P1;PMS_P2;Temp;Humidity;BMP_temperature;BMP_pressure;BME280_temperature;BME280_humidity;BME280_pressure;Samples;Min_cycle;Max_cycle;Signal;HPM_P1;HPM_P2
2023/06/13 00:00:13;;;;;;;1.90;1.80;;;21.00;35.10;;;;;;5026334;28;20174;-79
2023/06/13 00:02:39;;;;;;;1.98;1.85;;;21.00;35.00;;;;;;5042336;28;20490;-79
2023/06/13 00:05:07;;;;;;;1.85;1.75;;;21.00;35.00;;;;;;5059320;28;20162;-79
2023/06/13 00:07:37;;;;;;;1.98;1.80;;;20.90;35.00;;;;;;5058724;28;20522;-78
2023/06/13 00:10:05;;;;;;;2.10;1.95;;;20.90;35.00;;;;;;5026343;28;20166;-79
2023/06/13 00:12:34;;;;;;;2.40;2.20;;;20.90;35.10;;;;;;5058808;28;20176;-81
2023/06/13 00:15:03;;;;;;;2.47;2.00;;;21.00;35.00;;;;;;5042320;28;20157;-81
2023/06/13 00:17:29;;;;;;;1.98;1.88;;;20.90;35.00;;;;;;5025853;28;20632;-80
2023/06/13 00:19:55;;;;;;;2.28;2.08;;;21.00;35.10;;;;;;5041895;28;20162;-80
2023/06/13 00:22:23;;;;;;;1.83;1.73;;;20.90;35.10;;;;;;5041902;28;20158;-79
2023/06/13 00:24:50;;;;;;;2.20;2.03;;;20.90;35.00;;;;;;5042313;28;20147;-79
2023/06/13 00:27:15;;;;;;;2.35;2.10;;;20.90;35.10;;;;;;5042605;28;20181;-80
2023/06/13 00:29:41;;;;;;;1.88;1.77;;;20.90;35.00;;;;;;5063084;28;20636;-79
2023/06/13 00:32:07;;;;;;;2.05;1.85;;;20.90;35.00;;;;;;5046050;28;20617;-81
2023/06/13 00:34:33;;;;;;;2.05;1.85;;;20.90;35.10;;;;;;5045407;28;20154;-80
2023/06/13 00:36:59;;;;;;;1.70;1.60;;;20.90;35.10;;;;;;5029518;28;20162;-79
2023/06/13 00:39:25;;;;;;;2.42;2.08;;;20.90;35.10;;;;;;5063483;28;20644;-78
2023/06/13 00:41:50;;;;;;;2.55;1.90;;;20.90;35.20;;;;;;5046139;28;20174;-78
2023/06/13 00:44:16;;;;;;;2.10;1.90;;;20.90;35.90;;;;;;5045993;28;20177;-79
2023/06/13 00:46:43;;;;;;;1.88;1.77;;;20.90;35.10;;;;;;5046068;28;20586;-79
2023/06/13 00:49:09;;;;;;;2.22;2.00;;;20.90;35.30;;;;;;5045868;28;20201;-81
2023/06/13 00:51:36;;;;;;;2.15;1.42;;;20.90;35.20;;;;;;5046568;28;20158;-80
2023/06/13 00:54:02;;;;;;;2.03;1.80;;;20.90;35.20;;;;;;5046081;28;20160;-78
2023/06/13 00:56:29;;;;;;;1.88;1.77;;;20.90;35.20;;;;;;5062483;28;20158;-81
2023/06/13 00:59:03;;;;;;;2.03;1.90;;;20.90;35.30;;;;;;5046101;28;20217;-78
2023/06/13 01:01:30;;;;;;;2.08;1.88;;;20.90;35.30;;;;;;5029178;28;20177;-80
2023/06/13 01:03:59;;;;;;;1.67;1.58;;;20.80;35.30;;;;;;5029784;28;20169;-78
2023/06/13 01:06:28;;;;;;;1.85;1.75;;;20.90;35.30;;;;;;5045488;28;20161;-79
2023/06/13 01:08:58;;;;;;;2.13;1.92;;;20.80;35.20;;;;;;5046054;28;20194;-79
2023/06/13 01:11:31;;;;;;;2.05;1.85;;;20.90;35.30;;;;;;5046405;28;20178;-80
2023/06/13 01:14:01;;;;;;;1.90;1.80;;;20.90;35.30;;;;;;5045883;28;20166;-78
2023/06/13 01:16:33;;;;;;;2.03;1.90;;;20.80;35.30;;;;;;5045415;28;20185;-79
2023/06/13 01:18:59;;;;;;;2.78;1.90;;;20.80;35.30;;;;;;5046264;28;20609;-79
2023/06/13 01:21:26;;;;;;;2.13;1.92;;;20.80;35.30;;;;;;5029155;28;20174;-81
2023/06/13 01:24:03;;;;;;;2.00;1.80;;;20.80;35.30;;;;;;5045500;28;20162;-78
2023/06/13 01:26:44;;;;;;;1.98;1.80;;;20.80;35.30;;;;;;5045100;28;20170;-80
2023/06/13 01:29:10;;;;;;;1.85;1.75;;;20.80;35.30;;;;;;5061505;28;20182;-80
2023/06/13 01:31:36;;;;;;;2.20;2.00;;;20.90;35.30;;;;;;5061549;28;20162;-79
2023/06/13 01:34:02;;;;;;;2.13;1.90;;;20.80;35.40;;;;;;5045291;28;20160;-78
2023/06/13 01:36:29;;;;;;;2.08;1.90;;;20.80;35.30;;;;;;5045739;28;20587;-80
2023/06/13 01:38:55;;;;;;;1.70;1.60;;;20.80;35.40;;;;;;5045257;28;20158;-80
2023/06/13 01:41:21;;;;;;;2.00;1.80;;;20.80;35.40;;;;;;5028300;28;20172;-79
2023/06/13 01:43:47;;;;;;;1.88;1.77;;;20.80;35.40;;;;;;5061476;28;20660;-78
2023/06/13 01:46:26;;;;;;;2.00;1.90;;;20.80;35.40;;;;;;5044722;28;20565;-79
2023/06/13 01:49:29;;;;;;;1.73;1.63;;;20.80;35.50;;;;;;5030226;28;20269;-80
2023/06/13 01:52:31;;;;;;;2.00;1.80;;;20.80;35.60;;;;;;5061146;28;20205;-79
2023/06/13 01:55:02;;;;;;;2.20;2.00;;;20.80;35.50;;;;;;5062672;28;20169;-78
2023/06/13 01:57:36;;;;;;;2.25;2.05;;;20.80;35.60;;;;;;5045380;28;20189;-79
2023/06/13 02:00:03;;;;;;;2.05;1.83;;;20.70;35.50;;;;;;5061133;28;20150;-80
2023/06/13 02:02:29;;;;;;;1.83;1.73;;;20.80;35.60;;;;;;5044525;28;20555;-80
2023/06/13 02:04:54;;;;;;;2.38;2.17;;;20.80;35.60;;;;;;5060471;28;20663;-80
2023/06/13 02:07:22;;;;;;;2.03;1.80;;;20.80;35.70;;;;;;5027744;28;20686;-79
2023/06/13 02:09:50;;;;;;;2.30;2.00;;;20.80;35.70;;;;;;5028101;28;20620;-79
2023/06/13 02:12:16;;;;;;;1.90;1.80;;;20.80;35.60;;;;;;5027973;28;20184;-78
2023/06/13 02:14:42;;;;;;;2.00;1.90;;;20.80;35.70;;;;;;5060870;28;20210;-81
2023/06/13 02:17:11;;;;;;;2.35;2.00;;;20.70;35.70;;;;;;5028040;28;20562;-80
2023/06/13 02:19:37;;;;;;;2.10;1.90;;;20.70;35.60;;;;;;5060529;28;20146;-79
2023/06/13 02:22:03;;;;;;;2.00;1.90;;;20.70;35.60;;;;;;5043888;28;20155;-79
2023/06/13 02:24:29;;;;;;;1.90;1.80;;;20.70;35.50;;;;;;5060767;28;20551;-79
2023/06/13 02:26:54;;;;;;;2.05;1.90;;;20.80;35.70;;;;;;5044116;28;20613;-78
2023/06/13 02:29:20;;;;;;;1.90;1.80;;;20.70;35.50;;;;;;5061171;28;20185;-79
2023/06/13 02:31:46;;;;;;;2.10;1.90;;;20.70;35.70;;;;;;5060994;28;20162;-79
2023/06/13 02:34:11;;;;;;;2.00;1.90;;;20.70;35.80;;;;;;5060569;28;20181;-79
2023/06/13 02:36:37;;;;;;;1.90;1.80;;;20.70;35.80;;;;;;5026865;28;20245;-79
2023/06/13 02:39:03;;;;;;;1.95;1.80;;;20.60;35.80;;;;;;5042817;28;20174;-81
2023/06/13 02:41:29;;;;;;;1.90;1.73;;;20.60;35.80;;;;;;5059337;28;20232;-79
2023/06/13 02:43:54;;;;;;;1.83;1.73;;;20.70;35.80;;;;;;5060168;28;20620;-80
2023/06/13 02:46:20;;;;;;;2.28;2.08;;;20.70;35.80;;;;;;5041847;28;20308;-81
2023/06/13 02:48:48;;;;;;;1.80;1.70;;;20.70;35.80;;;;;;5059712;28;20221;-80
2023/06/13 02:51:13;;;;;;;2.15;2.00;;;20.70;35.80;;;;;;5057518;28;20159;-81
2023/06/13 02:53:39;;;;;;;1.90;1.80;;;20.70;35.80;;;;;;5057188;28;20216;-78
2023/06/13 02:56:06;;;;;;;2.20;2.00;;;20.70;35.80;;;;;;5057905;28;20170;-79
2023/06/13 02:58:32;;;;;;;2.13;1.92;;;20.70;35.80;;;;;;5059104;28;20154;-79
2023/06/13 03:00:57;;;;;;;2.10;1.90;;;20.70;35.80;;;;;;5057465;28;20187;-79
2023/06/13 03:03:23;;;;;;;1.80;1.70;;;20.60;35.80;;;;;;5056728;28;20703;-80
2023/06/13 03:05:56;;;;;;;1.60;1.50;;;20.70;35.80;;;;;;5056238;28;20625;-81
2023/06/13 03:08:22;;;;;;;2.03;1.92;;;20.70;35.80;;;;;;5040541;28;20225;-79
2023/06/13 03:10:48;;;;;;;1.90;1.80;;;20.70;35.80;;;;;;5056934;28;20185;-78
2023/06/13 03:13:15;;;;;;;1.90;1.80;;;20.70;35.90;;;;;;5057379;28;20212;-78
2023/06/13 03:15:45;;;;;;;2.03;1.88;;;20.70;35.90;;;;;;5056141;28;20237;-79
2023/06/13 03:18:12;;;;;;;2.20;2.00;;;20.70;35.80;;;;;;5040145;28;20261;-78
2023/06/13 03:20:37;;;;;;;1.80;1.70;;;20.70;36.00;;;;;;5039219;28;20671;-78
2023/06/13 03:23:03;;;;;;;2.05;1.90;;;20.70;35.90;;;;;;5039485;28;20162;-78
2023/06/13 03:25:29;;;;;;;2.20;2.00;;;20.60;35.90;;;;;;5038907;28;20616;-79
2023/06/13 03:27:55;;;;;;;2.55;2.13;;;20.70;35.90;;;;;;5057296;28;20188;-79
2023/06/13 03:30:21;;;;;;;1.88;1.77;;;20.70;36.00;;;;;;5039554;28;20161;-79
2023/06/13 03:32:47;;;;;;;2.00;1.90;;;20.70;36.00;;;;;;5039510;28;20159;-79
2023/06/13 03:35:12;;;;;;;2.08;1.88;;;20.70;35.80;;;;;;5039560;28;20656;-81
2023/06/13 03:37:40;;;;;;;2.15;1.90;;;20.70;35.90;;;;;;5057386;28;20609;-80
2023/06/13 03:40:06;;;;;;;1.90;1.80;;;20.70;35.90;;;;;;5057462;28;20154;-79
2023/06/13 03:42:32;;;;;;;2.28;2.08;;;20.70;35.80;;;;;;5039742;28;20158;-81
2023/06/13 03:44:58;;;;;;;2.08;1.85;;;20.70;35.90;;;;;;5039636;28;20245;-79
2023/06/13 03:47:24;;;;;;;2.10;1.92;;;20.70;35.90;;;;;;5056035;28;20237;-79
2023/06/13 03:49:50;;;;;;;2.33;2.13;;;20.80;36.00;;;;;;5056400;28;20613;-79
2023/06/13 03:52:16;;;;;;;2.40;2.20;;;20.90;35.80;;;;;;5055968;28;20249;-81
2023/06/13 03:54:41;;;;;;;1.92;1.83;;;20.80;35.90;;;;;;5056280;28;20593;-81
2023/06/13 03:57:08;;;;;;;2.30;2.10;;;20.90;36.00;;;;;;5023552;28;20177;-81
2023/06/13 03:59:34;;;;;;;2.15;1.95;;;20.80;35.90;;;;;;5022557;28;20177;-80
2023/06/13 04:02:00;;;;;;;1.90;1.80;;;20.90;35.90;;;;;;5037852;28;20151;-80
2023/06/13 04:04:26;;;;;;;1.83;1.73;;;20.90;35.90;;;;;;5055204;28;20166;-79
2023/06/13 04:06:53;;;;;;;2.05;1.95;;;20.90;35.80;;;;;;5038517;28;20558;-79
2023/06/13 04:09:18;;;;;;;1.90;1.80;;;20.90;35.80;;;;;;5038034;28;20198;-80
2023/06/13 04:11:44;;;;;;;2.30;2.10;;;20.90;35.80;;;;;;5054685;28;20489;-81
2023/06/13 04:14:10;;;;;;;2.85;2.22;;;20.90;35.90;;;;;;5054662;28;20154;-80
2023/06/13 04:16:35;;;;;;;2.20;2.00;;;21.00;35.90;;;;;;5056356;28;20162;-78
2023/06/13 04:19:01;;;;;;;1.88;1.75;;;21.00;35.70;;;;;;5054917;28;20648;-79
2023/06/13 04:21:27;;;;;;;2.00;1.80;;;21.00;35.70;;;;;;5054796;28;20617;-80
2023/06/13 04:23:53;;;;;;;2.20;2.00;;;21.00;35.70;;;;;;5054462;28;20174;-80
2023/06/13 04:26:19;;;;;;;1.92;1.83;;;21.00;35.70;;;;;;5022003;28;20215;-79
2023/06/13 04:28:45;;;;;;;2.20;2.00;;;20.90;35.70;;;;;;5054064;28;20541;-78
2023/06/13 04:31:11;;;;;;;2.30;2.10;;;21.00;35.80;;;;;;5021197;28;20571;-81
2023/06/13 04:33:39;;;;;;;2.10;1.90;;;21.00;35.70;;;;;;5054516;28;20565;-81
2023/06/13 04:36:06;;;;;;;1.98;1.77;;;21.00;35.70;;;;;;5037702;28;20155;-79
2023/06/13 04:38:34;;;;;;;2.05;1.90;;;21.00;35.70;;;;;;5038050;28;20204;-79
2023/06/13 04:41:00;;;;;;;2.15;1.95;;;21.00;35.50;;;;;;5054181;28;20150;-81
2023/06/13 04:43:28;;;;;;;1.95;1.85;;;21.00;35.60;;;;;;5053906;28;20178;-79
2023/06/13 04:45:55;;;;;;;2.03;1.92;;;21.10;35.70;;;;;;5037555;28;20271;-79
2023/06/13 04:48:25;;;;;;;2.00;1.90;;;21.00;35.70;;;;;;5037856;28;20545;-79
2023/06/13 04:50:53;;;;;;;2.10;1.90;;;21.00;35.70;;;;;;5038879;28;20257;-80
2023/06/13 04:53:21;;;;;;;2.08;1.88;;;21.10;35.70;;;;;;5037826;28;20636;-81
2023/06/13 04:55:49;;;;;;;1.80;1.60;;;21.10;35.80;;;;;;5021469;28;20167;-79
2023/06/13 04:58:17;;;;;;;2.05;1.95;;;21.10;35.70;;;;;;5037596;28;20209;-79
2023/06/13 05:00:47;;;;;;;2.35;2.00;;;21.10;35.70;;;;;;5054101;28;20524;-80
2023/06/13 05:03:16;;;;;;;2.10;1.90;;;21.20;35.70;;;;;;5037775;28;20165;-79
2023/06/13 05:05:44;;;;;;;1.90;1.80;;;21.10;35.70;;;;;;5054058;28;20150;-79
2023/06/13 05:08:13;;;;;;;2.17;1.98;;;21.10;35.90;;;;;;5053866;28;20557;-80
2023/06/13 05:10:41;;;;;;;2.10;1.90;;;21.20;35.70;;;;;;5038156;28;20200;-80
2023/06/13 05:13:07;;;;;;;2.22;2.03;;;21.20;35.60;;;;;;5054111;28;20224;-78
2023/06/13 05:15:32;;;;;;;1.92;1.77;;;21.30;35.50;;;;;;5041699;28;20539;-79
2023/06/13 05:17:58;;;;;;;1.88;1.77;;;21.20;35.60;;;;;;5057402;28;20170;-81
2023/06/13 05:20:26;;;;;;;2.88;2.08;;;21.20;35.50;;;;;;5057708;28;20170;-82
2023/06/13 05:22:52;;;;;;;1.60;1.50;;;21.20;35.60;;;;;;5058989;28;20150;-80
2023/06/13 05:25:20;;;;;;;2.10;1.90;;;21.30;35.60;;;;;;5057193;28;20502;-81
2023/06/13 05:27:46;;;;;;;1.70;1.60;;;21.30;35.50;;;;;;5024159;28;20193;-80
2023/06/13 05:30:12;;;;;;;2.20;2.00;;;21.30;35.50;;;;;;5024119;28;20227;-81
2023/06/13 05:32:38;;;;;;;1.83;1.73;;;21.30;35.50;;;;;;5058822;28;20162;-79
2023/06/13 05:35:04;;;;;;;2.08;1.88;;;21.30;35.50;;;;;;5057347;28;20640;-81
2023/06/13 05:37:30;;;;;;;1.90;1.80;;;21.20;35.70;;;;;;5057054;28;20166;-80
2023/06/13 05:39:56;;;;;;;2.22;2.10;;;21.10;36.00;;;;;;5057100;28;20614;-79
2023/06/13 05:42:22;;;;;;;2.17;2.00;;;20.90;36.40;;;;;;5056825;28;20571;-79
2023/06/13 05:44:47;;;;;;;2.15;1.83;;;20.90;36.80;;;;;;5039993;28;20613;-79
2023/06/13 05:47:13;;;;;;;2.00;1.80;;;20.90;36.80;;;;;;5039857;28;20228;-81
2023/06/13 05:49:38;;;;;;;2.17;1.98;;;20.90;36.90;;;;;;5040262;28;20189;-80
2023/06/13 05:52:05;;;;;;;1.77;1.67;;;20.90;37.10;;;;;;5023792;28;20548;-81
2023/06/13 05:54:31;;;;;;;2.08;1.88;;;20.90;37.00;;;;;;5057874;28;20173;-79
2023/06/13 05:56:57;;;;;;;2.03;1.83;;;21.00;36.90;;;;;;5040040;28;20162;-78
2023/06/13 05:59:22;;;;;;;2.00;1.90;;;21.00;36.90;;;;;;5039335;28;20162;-80
2023/06/13 06:01:49;;;;;;;1.85;1.75;;;21.00;36.90;;;;;;5039990;28;20162;-80
2023/06/13 06:04:17;;;;;;;1.98;1.80;;;20.90;36.90;;;;;;5040617;28;20174;-80
2023/06/13 06:06:42;;;;;;;2.30;2.10;;;20.80;37.20;;;;;;5057023;28;20158;-81
2023/06/13 06:09:08;;;;;;;1.80;1.70;;;20.90;37.10;;;;;;5056835;28;20189;-78
2023/06/13 06:11:35;;;;;;;2.28;2.08;;;20.90;37.20;;;;;;5040234;28;20150;-78
2023/06/13 06:14:01;;;;;;;2.00;1.77;;;21.00;37.00;;;;;;5058342;28;20142;-79
2023/06/13 06:16:26;;;;;;;2.20;2.00;;;21.00;37.00;;;;;;5058305;28;20220;-81
2023/06/13 06:18:53;;;;;;;2.17;1.98;;;21.00;37.00;;;;;;5056538;28;20621;-80
2023/06/13 06:21:20;;;;;;;2.00;1.88;;;21.00;36.90;;;;;;5057154;28;20157;-79
2023/06/13 06:23:47;;;;;;;1.95;1.83;;;21.00;37.10;;;;;;5039998;28;20164;-78
2023/06/13 06:26:13;;;;;;;2.13;1.92;;;21.00;37.10;;;;;;5039292;28;20617;-78
2023/06/13 06:28:39;;;;;;;2.42;2.22;;;21.00;37.60;;;;;;5056760;28;20194;-81
2023/06/13 06:31:05;;;;;;;2.45;2.25;;;20.90;37.00;;;;;;5039865;28;20166;-78
2023/06/13 06:33:31;;;;;;;1.95;1.75;;;20.90;37.10;;;;;;5056769;28;20146;-79
2023/06/13 06:35:57;;;;;;;2.03;1.90;;;21.10;37.10;;;;;;5022966;28;20253;-81
2023/06/13 06:38:22;;;;;;;1.92;1.77;;;21.10;37.10;;;;;;5039083;28;20709;-81
2023/06/13 06:40:48;;;;;;;2.20;2.00;;;21.00;37.20;;;;;;5039784;28;20657;-80
2023/06/13 06:43:14;;;;;;;2.40;2.08;;;21.10;37.20;;;;;;5055911;28;20164;-80
2023/06/13 06:45:39;;;;;;;2.22;2.03;;;21.10;37.10;;;;;;5055542;28;20217;-81
2023/06/13 06:48:05;;;;;;;2.30;2.10;;;21.10;37.10;;;;;;5057349;28;20655;-80
2023/06/13 06:50:31;;;;;;;2.20;2.00;;;21.00;37.20;;;;;;5039268;28;20154;-78
2023/06/13 06:52:57;;;;;;;2.25;2.05;;;21.10;37.10;;;;;;5039080;28;20154;-78
2023/06/13 06:55:23;;;;;;;2.28;2.03;;;21.10;37.10;;;;;;5055610;28;20150;-79
2023/06/13 06:57:49;;;;;;;2.58;1.98;;;21.10;37.20;;;;;;5038900;28;20232;-79
2023/06/13 07:00:15;;;;;;;2.50;2.30;;;21.20;37.10;;;;;;5057175;28;20198;-81
2023/06/13 07:02:41;;;;;;;2.35;2.15;;;21.20;37.50;;;;;;5041348;28;20174;-79
2023/06/13 07:05:08;;;;;;;3.15;2.30;;;21.20;37.30;;;;;;5057199;28;20255;-79
2023/06/13 07:07:34;;;;;;;2.33;2.13;;;21.20;37.10;;;;;;5041561;28;20261;-80
2023/06/13 07:10:00;;;;;;;2.80;2.17;;;21.20;37.20;;;;;;5057542;28;20174;-77
2023/06/13 07:12:25;;;;;;;2.35;2.15;;;21.10;37.30;;;;;;5057835;28;20526;-80
2023/06/13 07:14:51;;;;;;;2.58;2.38;;;21.20;37.30;;;;;;5059680;28;20583;-79
2023/06/13 07:17:17;;;;;;;2.50;2.30;;;21.20;37.40;;;;;;5057264;28;20200;-81
2023/06/13 07:19:43;;;;;;;2.47;2.28;;;21.20;37.30;;;;;;5057210;28;20157;-81
2023/06/13 07:22:09;;;;;;;2.97;2.38;;;21.20;37.20;;;;;;5040560;28;20644;-76
2023/06/13 07:24:35;;;;;;;2.35;2.15;;;21.30;37.40;;;;;;5040872;28;20611;-79
2023/06/13 07:27:00;;;;;;;2.47;2.22;;;21.30;37.30;;;;;;5057982;28;20241;-79
2023/06/13 07:29:26;;;;;;;2.42;2.22;;;21.40;37.10;;;;;;5057057;28;20190;-81
2023/06/13 07:31:53;;;;;;;2.67;2.33;;;21.30;37.10;;;;;;5025743;28;20177;-77
2023/06/13 07:34:20;;;;;;;2.58;2.38;;;21.30;37.30;;;;;;5042801;28;20158;-79
2023/06/13 07:36:45;;;;;;;4.55;2.50;;;21.30;37.40;;;;;;5025841;28;20169;-78
2023/06/13 07:39:13;;;;;;;3.40;2.50;;;21.30;37.50;;;;;;5058420;28;20635;-79
2023/06/13 07:41:39;;;;;;;2.60;2.35;;;21.30;37.50;;;;;;5041150;28;20174;-76
2023/06/13 07:44:05;;;;;;;3.28;2.30;;;21.40;37.30;;;;;;5058744;28;20210;-78
2023/06/13 07:46:31;;;;;;;2.65;2.35;;;21.30;37.50;;;;;;5041589;28;20228;-78
2023/06/13 07:48:57;;;;;;;2.63;2.30;;;21.30;37.40;;;;;;5042312;28;20190;-81
2023/06/13 07:51:24;;;;;;;2.50;2.30;;;21.30;37.50;;;;;;5028643;28;20177;-79
2023/06/13 07:53:50;;;;;;;3.83;2.40;;;21.40;37.30;;;;;;5043550;28;20154;-77
2023/06/13 07:56:16;;;;;;;2.38;2.17;;;21.40;37.30;;;;;;5027403;28;20166;-77
2023/06/13 07:58:43;;;;;;;2.58;2.38;;;21.40;37.30;;;;;;5027976;28;20216;-78
2023/06/13 08:01:08;;;;;;;3.05;2.60;;;21.50;37.30;;;;;;5060759;28;20181;-77
2023/06/13 08:03:35;;;;;;;2.53;2.33;;;21.50;37.10;;;;;;5060967;28;20170;-80
2023/06/13 08:06:01;;;;;;;2.53;2.28;;;21.60;37.10;;;;;;5060329;28;20170;-80
2023/06/13 08:08:26;;;;;;;2.50;2.30;;;21.50;37.10;;;;;;5058086;28;20551;-80
2023/06/13 08:10:53;;;;;;;2.75;2.45;;;21.50;37.30;;;;;;5041486;28;20527;-80
2023/06/13 08:13:19;;;;;;;2.83;2.45;;;21.50;37.20;;;;;;5040372;28;20154;-79
2023/06/13 08:15:45;;;;;;;2.47;2.28;;;21.50;37.00;;;;;;5058966;28;20169;-79
2023/06/13 08:18:11;;;;;;;2.50;2.30;;;21.50;37.10;;;;;;5059964;28;20605;-78
2023/06/13 08:20:37;;;;;;;4.20;2.47;;;21.40;37.20;;;;;;5059337;28;20154;-78
2023/06/13 08:23:03;;;;;;;2.95;2.50;;;21.40;37.40;;;;;;5044329;28;20529;-78
2023/06/13 08:25:29;;;;;;;2.70;2.45;;;21.40;37.40;;;;;;5045667;28;20181;-79
2023/06/13 08:27:55;;;;;;;2.90;2.60;;;21.40;37.30;;;;;;5062153;28;20190;-78
2023/06/13 08:30:21;;;;;;;3.20;2.50;;;21.50;37.40;;;;;;5044237;28;20177;-77
2023/06/13 08:32:47;;;;;;;2.78;2.58;;;21.50;37.20;;;;;;5061541;28;20154;-79
2023/06/13 08:35:14;;;;;;;3.22;2.45;;;21.50;37.40;;;;;;5043389;28;20166;-81
2023/06/13 08:37:40;;;;;;;2.75;2.45;;;21.70;37.30;;;;;;5059162;28;20170;-78
2023/06/13 08:40:09;;;;;;;2.72;2.40;;;21.60;37.20;;;;;;5044507;28;20166;-78
2023/06/13 08:42:37;;;;;;;2.90;2.58;;;21.60;37.10;;;;;;5061548;28;20150;-82
2023/06/13 08:45:03;;;;;;;2.80;2.60;;;21.60;37.00;;;;;;5026470;28;20168;-80
2023/06/13 08:47:30;;;;;;;2.58;2.38;;;21.60;37.20;;;;;;5058834;28;20229;-80
2023/06/13 08:49:56;;;;;;;2.85;2.50;;;21.60;37.30;;;;;;5061311;28;20170;-79
2023/06/13 08:52:22;;;;;;;3.58;2.55;;;21.60;37.20;;;;;;5045425;28;20177;-79
2023/06/13 08:54:52;;;;;;;2.80;2.55;;;21.70;37.20;;;;;;5063092;28;20158;-78
2023/06/13 08:57:18;;;;;;;2.72;2.53;;;21.70;36.90;;;;;;5062299;28;20170;-79
2023/06/13 08:59:45;;;;;;;3.25;2.55;;;21.70;37.00;;;;;;5045974;28;20660;-80
2023/06/13 09:02:14;;;;;;;2.90;2.60;;;21.70;37.00;;;;;;5063204;28;20158;-81
2023/06/13 09:04:41;;;;;;;2.67;2.47;;;21.70;37.20;;;;;;5064181;28;20265;-78
2023/06/13 09:07:10;;;;;;;2.65;2.45;;;21.70;37.10;;;;;;5064648;28;20150;-77
2023/06/13 09:09:36;;;;;;;2.72;2.47;;;21.80;37.00;;;;;;5065649;28;20289;-79
2023/06/13 09:12:01;;;;;;;2.80;2.60;;;21.80;37.10;;;;;;5048650;28;20171;-80
2023/06/13 09:14:27;;;;;;;2.70;2.50;;;21.80;36.90;;;;;;5065469;28;20146;-80
2023/06/13 09:16:53;;;;;;;4.40;2.50;;;21.80;36.90;;;;;;5066063;28;20190;-79
2023/06/13 09:19:19;;;;;;;2.80;2.53;;;21.80;36.80;;;;;;5066324;28;20166;-78
2023/06/13 09:21:46;;;;;;;3.20;2.40;;;21.80;36.90;;;;;;5065117;28;20186;-78
2023/06/13 09:24:12;;;;;;;3.20;2.15;;;21.80;36.80;;;;;;5031818;28;20178;-78
2023/06/13 09:26:40;;;;;;;2.47;2.28;;;21.80;36.80;;;;;;5063848;28;20165;-78
2023/06/13 09:29:06;;;;;;;3.35;2.70;;;21.80;36.80;;;;;;5047897;28;20198;-78
2023/06/13 09:31:36;;;;;;;2.65;2.20;;;21.90;36.80;;;;;;5048719;28;20162;-78
2023/06/13 09:34:02;;;;;;;2.60;2.33;;;21.80;36.90;;;;;;5049034;28;20210;-78
2023/06/13 09:36:28;;;;;;;2.78;2.55;;;21.80;36.90;;;;;;5049152;28;20188;-78
2023/06/13 09:38:54;;;;;;;2.88;2.58;;;21.90;37.00;;;;;;5048833;28;20732;-78
2023/06/13 09:41:20;;;;;;;2.60;2.40;;;21.90;36.90;;;;;;5065641;28;20162;-80
2023/06/13 09:43:45;;;;;;;3.10;2.80;;;22.00;36.80;;;;;;5064977;28;20166;-79
2023/06/13 09:46:13;;;;;;;2.53;2.25;;;21.90;36.70;;;;;;5065937;28;20682;-78
2023/06/13 09:48:44;;;;;;;2.55;2.33;;;21.90;36.80;;;;;;5048552;28;20194;-80
2023/06/13 09:51:11;;;;;;;2.97;2.67;;;21.90;36.70;;;;;;5065195;28;20188;-79
2023/06/13 09:53:36;;;;;;;2.58;2.38;;;22.00;36.80;;;;;;5064897;28;20520;-77
2023/06/13 09:56:09;;;;;;;3.22;2.58;;;21.90;36.70;;;;;;5066233;28;20247;-79
2023/06/13 09:58:36;;;;;;;2.70;2.50;;;22.00;36.70;;;;;;5064952;28;20155;-77
2023/06/13 10:01:03;;;;;;;2.63;2.40;;;22.00;36.70;;;;;;5028243;28;20174;-80
2023/06/13 10:03:28;;;;;;;2.88;2.50;;;21.90;36.80;;;;;;5028782;28;20174;-79
2023/06/13 10:05:58;;;;;;;2.55;2.35;;;21.90;36.80;;;;;;5045104;28;20180;-80
2023/06/13 10:08:25;;;;;;;2.88;2.55;;;21.80;36.90;;;;;;5061240;28;20235;-78
2023/06/13 10:10:53;;;;;;;2.58;2.33;;;21.90;36.90;;;;;;5062972;28;20178;-79
2023/06/13 10:13:25;;;;;;;2.63;2.40;;;21.90;37.00;;;;;;5046227;28;20165;-79
2023/06/13 10:15:52;;;;;;;2.90;2.58;;;22.00;37.10;;;;;;5062871;28;20154;-79
2023/06/13 10:18:20;;;;;;;2.72;2.50;;;22.00;36.90;;;;;;5065049;28;20535;-80
2023/06/13 10:20:47;;;;;;;3.25;2.35;;;22.10;36.70;;;;;;5063724;28;20233;-79
2023/06/13 10:23:18;;;;;;;2.88;2.58;;;22.10;36.50;;;;;;5047650;28;20261;-77
2023/06/13 10:25:44;;;;;;;2.67;2.47;;;22.10;36.60;;;;;;5063057;28;20154;-78
2023/06/13 10:28:40;;;;;;;2.58;2.38;;;22.20;36.30;;;;;;5046940;28;20221;-77
2023/06/13 10:31:18;;;;;;;2.38;2.17;;;22.10;36.40;;;;;;5063972;28;20510;-77
2023/06/13 10:33:57;;;;;;;2.78;2.58;;;22.10;36.50;;;;;;5062699;28;20158;-77
2023/06/13 10:36:41;;;;;;;2.50;2.30;;;22.10;36.40;;;;;;5064004;28;20161;-77
2023/06/13 10:39:45;;;;;;;2.60;2.40;;;22.10;36.50;;;;;;5062090;28;20173;-78
2023/06/13 10:42:21;;;;;;;2.35;2.15;;;22.10;36.40;;;;;;5052350;28;20189;-78
2023/06/13 10:45:00;;;;;;;2.70;2.33;;;22.10;36.40;;;;;;5063299;28;20547;-77
2023/06/13 10:47:28;;;;;;;3.28;2.67;;;22.10;36.70;;;;;;5063905;28;20225;-77
2023/06/13 10:49:54;;;;;;;5.38;2.75;;;22.10;36.50;;;;;;5031262;28;20174;-77
2023/06/13 10:52:20;;;;;;;6.18;2.35;;;22.20;36.60;;;;;;5047551;28;20154;-79
2023/06/13 10:54:55;;;;;;;3.65;2.53;;;22.20;36.30;;;;;;5062925;28;20150;-80
2023/06/13 10:57:21;;;;;;;3.38;2.58;;;22.20;36.50;;;;;;5064093;28;20176;-77
2023/06/13 10:59:48;;;;;;;11.07;2.65;;;22.20;36.10;;;;;;5062048;28;20170;-77
2023/06/13 11:02:16;;;;;;;7.53;2.67;;;22.20;36.40;;;;;;5062910;28;20162;-78
2023/06/13 11:04:50;;;;;;;4.15;2.55;;;22.30;36.20;;;;;;5063819;28;20157;-78
2023/06/13 11:07:25;;;;;;;4.55;2.65;;;22.30;36.20;;;;;;5048006;28;20185;-77
2023/06/13 11:10:03;;;;;;;4.82;2.72;;;22.30;36.10;;;;;;5047589;28;20158;-79
2023/06/13 11:12:29;;;;;;;8.38;2.47;;;22.30;36.20;;;;;;5043991;28;20190;-79
2023/06/13 11:14:57;;;;;;;7.35;2.53;;;22.30;36.00;;;;;;5043222;28;20161;-78
2023/06/13 11:17:22;;;;;;;6.45;2.80;;;22.40;36.00;;;;;;5061924;28;20162;-78
2023/06/13 11:19:48;;;;;;;8.95;2.60;;;22.30;35.80;;;;;;5061050;28;20543;-78
2023/06/13 11:22:13;;;;;;;5.22;2.72;;;22.20;35.90;;;;;;5043340;28;20169;-77
2023/06/13 11:24:40;;;;;;;9.68;2.78;;;22.40;35.90;;;;;;5060682;28;20229;-79
2023/06/13 11:27:09;;;;;;;4.88;2.33;;;22.40;35.80;;;;;;5042135;28;20158;-82
2023/06/13 11:29:36;;;;;;;3.95;2.60;;;22.40;35.90;;;;;;5040889;28;20190;-82
2023/06/13 11:32:04;;;;;;;3.90;2.30;;;22.40;36.10;;;;;;5040282;28;20166;-79
2023/06/13 11:34:32;;;;;;;3.50;2.55;;;22.30;36.10;;;;;;5058958;28;20159;-80
2023/06/13 11:37:01;;;;;;;3.75;2.20;;;22.30;36.00;;;;;;5043585;28;20146;-80
2023/06/13 11:39:32;;;;;;;4.15;2.58;;;22.30;36.00;;;;;;5044672;28;20167;-78
2023/06/13 11:41:58;;;;;;;3.05;2.47;;;22.20;36.20;;;;;;5030487;28;20254;-78
2023/06/13 11:44:23;;;;;;;3.25;2.30;;;22.20;36.10;;;;;;5023945;28;20201;-81
2023/06/13 11:46:50;;;;;;;5.97;2.47;;;22.30;36.60;;;;;;5057923;28;20314;-77
2023/06/13 11:49:19;;;;;;;4.68;2.55;;;22.30;36.00;;;;;;5062795;28;20189;-77
2023/06/13 11:51:45;;;;;;;3.20;2.13;;;22.30;35.90;;;;;;5048238;28;20176;-77
2023/06/13 11:54:13;;;;;;;6.35;2.45;;;22.30;35.90;;;;;;5064544;28;20182;-77
2023/06/13 11:56:50;;;;;;;6.25;2.70;;;22.30;35.80;;;;;;5064220;28;20647;-77
2023/06/13 11:59:20;;;;;;;4.95;2.40;;;22.30;35.80;;;;;;5064813;28;20161;-76
2023/06/13 12:01:48;;;;;;;7.22;2.60;;;22.30;35.90;;;;;;5065568;28;20607;-77
2023/06/13 12:04:17;;;;;;;9.90;2.90;;;22.40;35.70;;;;;;5064946;28;20150;-76
2023/06/13 12:06:45;;;;;;;7.32;2.30;;;22.40;35.50;;;;;;5064885;28;20154;-77
2023/06/13 12:09:14;;;;;;;7.80;2.45;;;22.40;35.70;;;;;;5048178;28;20204;-79
2023/06/13 12:11:41;;;;;;;5.38;2.67;;;22.50;35.50;;;;;;5065124;28;20146;-76
2023/06/13 12:14:06;;;;;;;4.53;2.40;;;22.50;35.60;;;;;;5048492;28;20154;-77
2023/06/13 12:16:35;;;;;;;4.45;2.60;;;22.50;35.40;;;;;;5064173;28;20631;-77
2023/06/13 12:19:01;;;;;;;5.47;2.40;;;22.50;35.50;;;;;;5064441;28;20154;-77
2023/06/13 12:21:30;;;;;;;10.60;2.63;;;22.50;35.50;;;;;;5064215;28;20150;-77
2023/06/13 12:23:57;;;;;;;9.07;2.80;;;22.40;35.40;;;;;;5047293;28;20244;-78
2023/06/13 12:26:24;;;;;;;4.60;2.30;;;22.40;35.50;;;;;;5062890;28;20169;-78
2023/06/13 12:28:52;;;;;;;4.45;2.13;;;22.40;35.50;;;;;;5064006;28;20196;-78
2023/06/13 12:31:29;;;;;;;4.63;2.22;;;22.40;35.50;;;;;;5064492;28;20186;-78
2023/06/13 12:34:16;;;;;;;7.32;2.63;;;22.50;35.20;;;;;;5063208;28;20220;-77
2023/06/13 12:36:44;;;;;;;4.13;2.30;;;22.60;35.10;;;;;;5047163;28;20162;-77
2023/06/13 12:39:14;;;;;;;5.65;2.53;;;22.50;35.30;;;;;;5065091;28;20161;-77
2023/06/13 12:41:45;;;;;;;6.63;2.47;;;22.40;35.50;;;;;;5063790;28;20166;-77
2023/06/13 12:44:12;;;;;;;3.65;2.42;;;22.30;35.60;;;;;;5047373;28;20173;-76
2023/06/13 12:46:38;;;;;;;5.70;2.30;;;22.30;35.70;;;;;;5047282;28;20218;-77
2023/06/13 12:49:12;;;;;;;3.63;2.30;;;22.30;35.80;;;;;;5064105;28;20204;-76